createdAt,value
2018-12-15T00:00:45.031Z,0.80
2018-12-15T00:03:12.546Z,0.80
2018-12-15T00:05:39.979Z,0.70
2018-12-15T00:08:07.441Z,0.80
2018-12-15T00:10:34.951Z,0.70
2018-12-15T00:13:02.352Z,0.80
2018-12-15T00:15:29.807Z,0.80
2018-12-15T00:17:57.264Z,0.80
2018-12-15T00:20:24.739Z,0.70
2018-12-15T00:22:52.128Z,0.80
2018-12-15T00:25:19.549Z,0.70
2018-12-15T00:27:47.308Z,0.70
2018-12-15T00:30:15.797Z,0.70
2018-12-15T00:32:43.246Z,0.70
2018-12-15T00:35:10.700Z,0.70
2018-12-15T00:37:38.149Z,0.70
2018-12-15T00:40:05.610Z,0.60
2018-12-15T00:42:33.612Z,0.70
2018-12-15T00:45:01.054Z,0.70
2018-12-15T00:47:28.468Z,0.70
2018-12-15T00:49:55.944Z,0.70
2018-12-15T00:52:23.341Z,0.70
2018-12-15T00:54:50.764Z,0.70
2018-12-15T00:57:18.253Z,0.70
2018-12-15T00:59:45.676Z,0.70
2018-12-15T01:02:13.108Z,0.70
2018-12-15T01:04:40.698Z,0.70
2018-12-15T01:07:08.168Z,0.70
2018-12-15T01:09:35.632Z,0.70
2018-12-15T01:12:03.068Z,0.70
2018-12-15T01:14:30.548Z,0.70
2018-12-15T01:16:57.981Z,0.70
2018-12-15T01:19:25.460Z,0.60
2018-12-15T01:21:52.937Z,0.70
2018-12-15T01:24:20.347Z,0.70
2018-12-15T01:26:47.821Z,0.70
2018-12-15T01:29:15.293Z,0.70
2018-12-15T01:31:42.735Z,0.70
2018-12-15T01:34:10.204Z,0.70
2018-12-15T01:36:37.646Z,0.70
2018-12-15T01:39:06.434Z,0.70
2018-12-15T01:41:33.893Z,0.70
2018-12-15T01:44:01.300Z,0.70
2018-12-15T01:46:28.704Z,0.70
2018-12-15T01:48:56.164Z,0.70
2018-12-15T01:51:23.660Z,0.70
2018-12-15T01:53:51.085Z,0.70
2018-12-15T01:56:18.528Z,0.70
2018-12-15T01:58:45.991Z,0.70
2018-12-15T02:01:13.579Z,0.70
2018-12-15T02:03:41.012Z,0.70
2018-12-15T02:06:08.505Z,0.70
2018-12-15T02:08:35.970Z,0.70
2018-12-15T02:11:03.361Z,0.70
2018-12-15T02:13:30.847Z,0.70
2018-12-15T02:15:58.323Z,0.70
2018-12-15T02:18:25.704Z,0.70
2018-12-15T02:20:53.129Z,0.60
2018-12-15T02:23:20.583Z,0.60
2018-12-15T02:25:48.064Z,0.60
2018-12-15T02:28:15.493Z,0.60
2018-12-15T02:30:42.896Z,0.60
2018-12-15T02:33:10.309Z,0.60
2018-12-15T02:35:37.718Z,0.60
2018-12-15T02:38:05.220Z,0.60
2018-12-15T02:40:32.724Z,0.60
2018-12-15T02:43:00.142Z,0.50
2018-12-15T02:45:27.693Z,0.50
2018-12-15T02:47:55.609Z,0.60
2018-12-15T02:50:23.066Z,0.60
2018-12-15T02:52:50.485Z,0.60
2018-12-15T02:55:18.047Z,0.60
2018-12-15T02:57:45.507Z,0.60
2018-12-15T03:00:13.049Z,0.60
2018-12-15T03:02:40.445Z,0.60
2018-12-15T03:05:07.969Z,0.60
2018-12-15T03:07:35.533Z,0.60
2018-12-15T03:10:03.014Z,0.60
2018-12-15T03:12:30.497Z,0.60
2018-12-15T03:14:57.921Z,0.60
2018-12-15T03:17:25.370Z,0.60
2018-12-15T03:19:52.842Z,0.60
2018-12-15T03:22:20.303Z,0.60
2018-12-15T03:24:47.733Z,0.60
2018-12-15T03:27:15.214Z,0.60
2018-12-15T03:29:42.609Z,0.60
2018-12-15T03:32:10.016Z,0.60
2018-12-15T03:34:37.401Z,0.60
2018-12-15T03:37:04.843Z,0.60
2018-12-15T03:39:32.307Z,0.60
2018-12-15T03:41:59.835Z,0.60
2018-12-15T03:44:27.330Z,0.60
2018-12-15T03:46:54.783Z,0.60
2018-12-15T03:49:22.213Z,0.50
2018-12-15T03:51:49.661Z,0.60
2018-12-15T03:54:17.129Z,0.60
2018-12-15T03:56:44.614Z,0.60
2018-12-15T03:59:12.048Z,0.70
2018-12-15T04:01:39.548Z,0.70
2018-12-15T04:04:06.966Z,0.70
2018-12-15T04:06:34.556Z,0.70
2018-12-15T04:09:02.028Z,0.70
2018-12-15T04:11:29.482Z,0.70
2018-12-15T04:13:57.174Z,0.80
2018-12-15T04:16:24.704Z,0.80
2018-12-15T04:18:52.121Z,0.80
2018-12-15T04:21:19.585Z,0.80
2018-12-15T04:23:47.118Z,0.80
2018-12-15T04:26:14.690Z,0.80
2018-12-15T04:28:42.679Z,0.80
2018-12-15T04:31:10.221Z,0.80
2018-12-15T04:33:37.783Z,0.80
2018-12-15T04:36:13.580Z,0.80
2018-12-15T04:38:41.223Z,0.80
2018-12-15T04:41:08.636Z,0.70
2018-12-15T04:43:36.210Z,0.70
2018-12-15T04:46:03.769Z,0.70
2018-12-15T04:48:32.081Z,0.70
2018-12-15T04:50:59.605Z,0.70
2018-12-15T04:53:27.099Z,0.70
2018-12-15T04:55:54.581Z,0.70
2018-12-15T04:58:22.182Z,0.70
2018-12-15T05:00:49.649Z,0.70
2018-12-15T05:03:17.139Z,0.70
2018-12-15T05:05:44.561Z,0.70
2018-12-15T05:08:12.046Z,0.70
2018-12-15T05:10:40.173Z,0.70
2018-12-15T05:13:07.870Z,0.70
2018-12-15T05:15:35.374Z,0.70
2018-12-15T05:18:02.786Z,0.60
2018-12-15T05:20:30.234Z,0.60
2018-12-15T05:22:57.738Z,0.70
2018-12-15T05:25:26.175Z,0.70
2018-12-15T05:27:53.673Z,0.70
2018-12-15T05:30:21.066Z,0.70
2018-12-15T05:32:48.570Z,0.70
2018-12-15T05:35:16.010Z,0.70
2018-12-15T05:37:43.559Z,0.70
2018-12-15T05:40:11.018Z,0.60
2018-12-15T05:42:38.508Z,0.60
2018-12-15T05:45:06.354Z,0.60
2018-12-15T05:47:34.008Z,0.60
2018-12-15T05:50:01.469Z,0.60
2018-12-15T05:52:29.024Z,0.60
2018-12-15T05:54:56.493Z,0.50
2018-12-15T05:57:24.166Z,0.50
2018-12-15T05:59:51.705Z,0.50
2018-12-15T06:02:20.034Z,0.50
2018-12-15T06:04:47.548Z,0.50
2018-12-15T06:07:15.031Z,0.50
2018-12-15T06:09:43.003Z,0.50
2018-12-15T06:12:10.427Z,0.50
2018-12-15T06:14:37.818Z,0.50
2018-12-15T06:17:05.253Z,0.50
2018-12-15T06:19:32.698Z,0.50
2018-12-15T06:22:00.175Z,0.50
2018-12-15T06:24:27.621Z,0.50
2018-12-15T06:26:55.090Z,0.50
2018-12-15T06:29:22.520Z,0.50
2018-12-15T06:31:50.277Z,0.50
2018-12-15T06:34:17.690Z,0.60
2018-12-15T06:36:47.066Z,0.60
2018-12-15T06:39:14.539Z,0.50
2018-12-15T06:41:41.984Z,0.50
2018-12-15T06:44:09.528Z,0.50
2018-12-15T06:46:36.989Z,0.50
2018-12-15T06:49:04.542Z,0.50
2018-12-15T06:51:32.588Z,0.60
2018-12-15T06:54:00.174Z,0.60
2018-12-15T06:56:28.130Z,0.60
2018-12-15T06:58:55.702Z,0.60
2018-12-15T07:01:23.774Z,0.60
2018-12-15T07:03:51.337Z,0.60
2018-12-15T07:06:18.725Z,0.60
2018-12-15T07:08:46.193Z,0.60
2018-12-15T07:11:13.742Z,0.60
2018-12-15T07:13:41.265Z,0.70
2018-12-15T07:16:08.863Z,0.70
2018-12-15T07:18:36.770Z,0.70
2018-12-15T07:21:04.269Z,0.70
2018-12-15T07:23:31.822Z,0.70
2018-12-15T07:25:59.297Z,0.70
2018-12-15T07:28:26.728Z,0.60
2018-12-15T07:30:54.224Z,0.60
2018-12-15T07:33:21.748Z,0.60
2018-12-15T07:35:49.213Z,0.60
2018-12-15T07:38:16.690Z,0.60
2018-12-15T07:40:44.429Z,0.60
2018-12-15T07:43:11.913Z,0.70
2018-12-15T07:45:39.837Z,0.60
2018-12-15T07:48:07.351Z,0.70
2018-12-15T07:50:34.798Z,0.70
2018-12-15T07:53:02.259Z,0.70
2018-12-15T07:55:29.714Z,0.70
2018-12-15T07:57:57.187Z,0.80
2018-12-15T08:00:24.743Z,0.70
2018-12-15T08:02:52.261Z,0.80
2018-12-15T08:05:20.270Z,0.80
2018-12-15T08:07:47.735Z,0.80
2018-12-15T08:10:19.512Z,0.80
2018-12-15T08:12:52.309Z,0.70
2018-12-15T08:15:19.805Z,0.70
2018-12-15T08:17:47.273Z,0.70
2018-12-15T08:20:14.750Z,0.80
2018-12-15T08:22:42.158Z,0.70
2018-12-15T08:25:09.532Z,0.80
2018-12-15T08:27:36.996Z,0.80
2018-12-15T08:30:05.578Z,0.90
2018-12-15T08:32:33.024Z,0.90
2018-12-15T08:35:00.501Z,1.00
2018-12-15T08:37:27.899Z,1.00
2018-12-15T08:39:55.393Z,1.00
2018-12-15T08:42:22.962Z,1.10
2018-12-15T08:44:50.486Z,1.10
2018-12-15T08:47:17.992Z,1.20
2018-12-15T08:49:45.457Z,1.20
2018-12-15T08:52:12.889Z,1.20
2018-12-15T08:54:40.450Z,1.30
2018-12-15T08:57:09.866Z,1.30
2018-12-15T08:59:37.357Z,1.30
2018-12-15T09:02:05.491Z,1.30
2018-12-15T09:04:32.910Z,1.40
2018-12-15T09:07:00.420Z,1.40
2018-12-15T09:09:27.890Z,1.50
2018-12-15T09:11:55.422Z,1.50
2018-12-15T09:14:22.969Z,1.50
2018-12-15T09:16:51.069Z,1.50
2018-12-15T09:19:18.643Z,1.60
2018-12-15T09:21:46.094Z,1.60
2018-12-15T09:24:13.554Z,1.60
2018-12-15T09:26:40.953Z,1.60
2018-12-15T09:29:08.489Z,1.60
2018-12-15T09:31:35.874Z,1.60
2018-12-15T09:34:03.393Z,1.70
2018-12-15T09:36:30.825Z,1.70
2018-12-15T09:38:58.302Z,1.70
2018-12-15T09:41:25.722Z,1.70
2018-12-15T09:43:53.217Z,1.80
2018-12-15T09:46:20.663Z,1.70
2018-12-15T09:48:48.094Z,1.70
2018-12-15T09:51:15.570Z,1.80
2018-12-15T09:53:43.003Z,1.80
2018-12-15T09:56:10.485Z,1.70
2018-12-15T09:58:37.977Z,1.80
2018-12-15T10:01:05.523Z,1.80
2018-12-15T10:03:32.985Z,1.80
2018-12-15T10:06:00.556Z,1.90
2018-12-15T10:08:28.014Z,1.80
2018-12-15T10:10:55.529Z,1.80
2018-12-15T10:13:23.012Z,1.70
2018-12-15T10:15:50.432Z,1.70
2018-12-15T10:18:17.944Z,1.70
2018-12-15T10:20:46.212Z,1.80
2018-12-15T10:23:13.737Z,1.80
2018-12-15T10:25:41.144Z,1.80
2018-12-15T10:28:08.542Z,1.80
2018-12-15T10:30:41.522Z,1.80
2018-12-15T10:33:08.926Z,1.80
2018-12-15T10:35:36.339Z,1.80
2018-12-15T10:38:03.849Z,1.80
2018-12-15T10:40:31.274Z,1.90
2018-12-15T10:42:58.671Z,1.90
2018-12-15T10:45:26.076Z,1.90
2018-12-15T10:47:53.533Z,2.00
2018-12-15T10:50:20.953Z,2.00
2018-12-15T10:52:48.637Z,2.00
2018-12-15T10:55:16.161Z,2.00
2018-12-15T10:57:43.606Z,2.00
2018-12-15T11:00:17.475Z,2.10
2018-12-15T11:02:45.056Z,2.10
2018-12-15T11:05:12.601Z,2.10
2018-12-15T11:07:40.018Z,2.10
2018-12-15T11:10:07.462Z,2.00
2018-12-15T11:12:34.886Z,2.00
2018-12-15T11:15:02.357Z,2.00
2018-12-15T11:17:29.998Z,2.00
2018-12-15T11:19:57.564Z,2.00
2018-12-15T11:22:25.042Z,2.00
2018-12-15T11:24:52.575Z,2.00
2018-12-15T11:27:20.057Z,2.10
2018-12-15T11:29:47.594Z,2.10
2018-12-15T11:32:15.182Z,2.20
2018-12-15T11:34:42.662Z,2.20
2018-12-15T11:37:10.085Z,2.30
2018-12-15T11:39:37.630Z,2.20
2018-12-15T11:42:05.106Z,2.20
2018-12-15T11:44:35.176Z,2.20
2018-12-15T11:47:02.701Z,2.20
2018-12-15T11:49:30.145Z,2.10
2018-12-15T11:51:57.685Z,2.10
2018-12-15T11:54:25.217Z,2.00
2018-12-15T11:56:52.722Z,2.10
2018-12-15T11:59:20.278Z,2.10
2018-12-15T12:01:47.744Z,2.00
2018-12-15T12:04:15.909Z,2.00
2018-12-15T12:06:43.458Z,1.90
2018-12-15T12:09:11.969Z,2.00
2018-12-15T12:11:39.669Z,1.90
2018-12-15T12:14:07.233Z,2.00
2018-12-15T12:16:34.737Z,2.00
2018-12-15T12:19:02.277Z,1.90
2018-12-15T12:21:29.688Z,2.00
2018-12-15T12:23:57.215Z,2.00
2018-12-15T12:26:24.673Z,2.00
2018-12-15T12:28:52.212Z,2.00
2018-12-15T12:31:19.685Z,2.10
2018-12-15T12:33:47.182Z,2.10
2018-12-15T12:36:14.586Z,2.20
2018-12-15T12:38:42.096Z,2.20
2018-12-15T12:41:09.571Z,2.20
2018-12-15T12:43:37.025Z,2.20
2018-12-15T12:46:04.516Z,2.20
2018-12-15T12:48:31.988Z,2.20
2018-12-15T12:50:59.534Z,2.30
2018-12-15T12:53:27.229Z,2.10
2018-12-15T12:55:54.776Z,2.10
2018-12-15T12:58:22.352Z,2.10
2018-12-15T13:00:49.806Z,2.10
2018-12-15T13:03:17.874Z,2.10
2018-12-15T13:05:45.386Z,2.10
2018-12-15T13:08:12.873Z,2.20
2018-12-15T13:10:40.430Z,2.20
2018-12-15T13:13:08.028Z,2.20
2018-12-15T13:15:35.583Z,2.20
2018-12-15T13:18:03.126Z,2.10
2018-12-15T13:20:30.667Z,2.10
2018-12-15T13:22:58.340Z,2.20
2018-12-15T13:25:25.846Z,2.20
2018-12-15T13:27:53.265Z,2.20
2018-12-15T13:30:20.804Z,2.20
2018-12-15T13:32:48.204Z,2.20
2018-12-15T13:35:15.793Z,2.20
2018-12-15T13:37:43.302Z,2.20
2018-12-15T13:40:10.829Z,2.20
2018-12-15T13:42:38.322Z,2.20
2018-12-15T13:45:05.799Z,2.30
2018-12-15T13:47:33.265Z,2.20
2018-12-15T13:50:00.728Z,2.20
2018-12-15T13:52:28.125Z,2.20
2018-12-15T13:54:55.622Z,2.20
2018-12-15T13:57:23.137Z,2.10
2018-12-15T13:59:50.646Z,2.10
2018-12-15T14:02:18.914Z,2.10
2018-12-15T14:04:46.442Z,2.00
2018-12-15T14:07:13.933Z,2.00
2018-12-15T14:09:41.565Z,2.00
2018-12-15T14:12:09.559Z,2.00
2018-12-15T14:14:37.063Z,2.00
2018-12-15T14:17:04.668Z,1.90
2018-12-15T14:19:32.111Z,1.90
2018-12-15T14:21:59.600Z,1.80
2018-12-15T14:24:26.981Z,1.80
2018-12-15T14:26:54.474Z,1.80
2018-12-15T14:29:21.980Z,1.80
2018-12-15T14:31:49.539Z,1.80
2018-12-15T14:34:17.056Z,1.80
2018-12-15T14:36:44.516Z,1.80
2018-12-15T14:39:11.912Z,1.80
2018-12-15T14:41:39.437Z,1.80
2018-12-15T14:44:06.915Z,1.90
2018-12-15T14:46:34.452Z,1.90
2018-12-15T14:49:01.950Z,1.90
2018-12-15T14:51:29.379Z,1.80
2018-12-15T14:53:56.948Z,1.80
2018-12-15T14:56:24.386Z,1.70
2018-12-15T14:58:51.815Z,1.80
2018-12-15T15:01:20.050Z,1.80
2018-12-15T15:03:47.466Z,1.70
2018-12-15T15:06:14.931Z,1.80
2018-12-15T15:08:42.419Z,1.80
2018-12-15T15:11:09.838Z,1.80
2018-12-15T15:13:37.225Z,1.70
2018-12-15T15:16:04.701Z,1.80
2018-12-15T15:18:32.227Z,1.70
2018-12-15T15:20:59.831Z,1.70
2018-12-15T15:23:27.266Z,1.70
2018-12-15T15:25:54.839Z,1.70
2018-12-15T15:28:22.780Z,1.70
2018-12-15T15:30:50.277Z,1.60
2018-12-15T15:33:17.677Z,1.60
2018-12-15T15:35:45.214Z,1.60
2018-12-15T15:38:12.605Z,1.70
2018-12-15T15:40:40.082Z,1.70
2018-12-15T15:43:08.445Z,1.70
2018-12-15T15:45:35.978Z,1.60
2018-12-15T15:48:03.401Z,1.70
2018-12-15T15:50:36.486Z,1.70
2018-12-15T15:53:00.326Z,1.60
2018-12-15T15:55:27.830Z,1.60
2018-12-15T15:57:59.742Z,1.60
2018-12-15T16:00:27.460Z,1.60
2018-12-15T16:02:54.869Z,1.60
2018-12-15T16:05:22.335Z,1.60
2018-12-15T16:07:49.973Z,1.60
2018-12-15T16:10:17.455Z,1.60
2018-12-15T16:12:45.027Z,1.60
2018-12-15T16:15:12.556Z,1.60
2018-12-15T16:17:40.112Z,1.60
2018-12-15T16:20:09.029Z,1.60
2018-12-15T16:22:38.773Z,1.60
2018-12-15T16:25:13.567Z,1.60
2018-12-15T16:27:40.997Z,1.60
2018-12-15T16:30:11.359Z,1.60
2018-12-15T16:32:38.949Z,1.60
2018-12-15T16:35:06.502Z,1.60
2018-12-15T16:37:33.957Z,1.60
2018-12-15T16:40:01.394Z,1.60
2018-12-15T16:42:28.896Z,1.60
2018-12-15T16:44:57.106Z,1.60
2018-12-15T16:47:24.673Z,1.60
2018-12-15T16:49:52.465Z,1.60
2018-12-15T16:52:20.627Z,1.70
2018-12-15T16:54:48.603Z,1.60
2018-12-15T16:57:16.091Z,1.60
2018-12-15T16:59:43.501Z,1.60
2018-12-15T17:02:11.821Z,1.60
2018-12-15T17:04:39.256Z,1.60
2018-12-15T17:07:06.733Z,1.60
2018-12-15T17:09:34.253Z,1.60
2018-12-15T17:12:01.782Z,1.60
2018-12-15T17:14:29.294Z,1.60
2018-12-15T17:16:56.781Z,1.60
2018-12-15T17:19:24.241Z,1.50
2018-12-15T17:21:51.694Z,1.50
2018-12-15T17:24:19.121Z,1.50
2018-12-15T17:26:46.833Z,1.50
2018-12-15T17:29:14.330Z,1.50
2018-12-15T17:31:41.772Z,1.50
2018-12-15T17:34:09.262Z,1.50
2018-12-15T17:36:36.929Z,1.60
2018-12-15T17:39:06.356Z,1.60
2018-12-15T17:41:33.907Z,1.60
2018-12-15T17:44:01.317Z,1.60
2018-12-15T17:46:28.817Z,1.60
2018-12-15T17:48:56.350Z,1.60
2018-12-15T17:51:23.897Z,1.60
2018-12-15T17:53:51.365Z,1.60
2018-12-15T17:56:18.863Z,1.60
2018-12-15T17:58:46.287Z,1.60
2018-12-15T18:01:13.725Z,1.60
2018-12-15T18:03:41.209Z,1.60
2018-12-15T18:06:08.686Z,1.60
2018-12-15T18:08:36.080Z,1.60
2018-12-15T18:11:03.515Z,1.60
2018-12-15T18:13:30.910Z,1.60
2018-12-15T18:15:58.405Z,1.50
2018-12-15T18:18:25.838Z,1.60
2018-12-15T18:20:53.382Z,1.50
2018-12-15T18:23:20.815Z,1.50
2018-12-15T18:25:48.327Z,1.50
2018-12-15T18:28:15.802Z,1.50
2018-12-15T18:30:43.230Z,1.40
2018-12-15T18:33:10.713Z,1.40
2018-12-15T18:35:38.258Z,1.30
2018-12-15T18:38:05.745Z,1.30
2018-12-15T18:40:33.145Z,1.30
2018-12-15T18:43:00.705Z,1.30
2018-12-15T18:45:28.093Z,1.30
2018-12-15T18:47:55.534Z,1.30
2018-12-15T18:50:23.001Z,1.30
2018-12-15T18:52:50.485Z,1.30
2018-12-15T18:55:17.905Z,1.30
2018-12-15T18:57:45.407Z,1.30
2018-12-15T19:00:12.821Z,1.30
2018-12-15T19:02:40.252Z,1.30
2018-12-15T19:05:07.642Z,1.30
2018-12-15T19:07:35.081Z,1.30
2018-12-15T19:10:02.617Z,1.30
2018-12-15T19:12:30.055Z,1.30
2018-12-15T19:14:57.445Z,1.30
2018-12-15T19:17:25.594Z,1.30
2018-12-15T19:19:53.084Z,1.30
2018-12-15T19:22:20.593Z,1.40
2018-12-15T19:24:48.006Z,1.40
2018-12-15T19:27:15.482Z,1.40
2018-12-15T19:29:42.878Z,1.40
2018-12-15T19:32:10.312Z,1.40
2018-12-15T19:34:37.701Z,1.40
2018-12-15T19:37:05.242Z,1.40
2018-12-15T19:39:32.638Z,1.30
2018-12-15T19:42:00.033Z,1.30
2018-12-15T19:44:27.434Z,1.30
2018-12-15T19:46:54.966Z,1.40
2018-12-15T19:49:22.399Z,1.40
2018-12-15T19:51:49.828Z,1.30
2018-12-15T19:54:17.233Z,1.40
2018-12-15T19:56:44.670Z,1.30
2018-12-15T19:59:15.001Z,1.30
2018-12-15T20:01:42.861Z,1.40
2018-12-15T20:04:10.249Z,1.30
2018-12-15T20:06:37.693Z,1.30
2018-12-15T20:09:07.006Z,1.40
2018-12-15T20:11:34.406Z,1.40
2018-12-15T20:14:01.912Z,1.40
2018-12-15T20:16:29.314Z,1.30
2018-12-15T20:18:56.833Z,1.30
2018-12-15T20:21:24.249Z,1.20
2018-12-15T20:23:51.741Z,1.30
2018-12-15T20:26:19.129Z,1.30
2018-12-15T20:28:46.623Z,1.30
2018-12-15T20:31:14.100Z,1.30
2018-12-15T20:33:41.538Z,1.30
2018-12-15T20:36:08.992Z,1.20
2018-12-15T20:38:36.521Z,1.20
2018-12-15T20:41:04.013Z,1.20
2018-12-15T20:43:31.470Z,1.20
2018-12-15T20:45:58.871Z,1.20
2018-12-15T20:48:27.364Z,1.20
2018-12-15T20:50:54.901Z,1.10
2018-12-15T20:53:22.339Z,1.20
2018-12-15T20:55:49.905Z,1.10
2018-12-15T20:58:17.390Z,1.10
2018-12-15T21:00:44.781Z,1.10
2018-12-15T21:03:12.413Z,1.10
2018-12-15T21:05:39.813Z,1.10
2018-12-15T21:08:07.325Z,1.00
2018-12-15T21:10:34.758Z,1.10
2018-12-15T21:13:02.253Z,1.00
2018-12-15T21:15:31.602Z,1.00
2018-12-15T21:17:59.097Z,1.00
2018-12-15T21:20:26.514Z,1.00
2018-12-15T21:22:53.949Z,1.00
2018-12-15T21:25:21.347Z,1.10
2018-12-15T21:27:48.831Z,1.10
2018-12-15T21:30:16.313Z,1.10
2018-12-15T21:32:43.742Z,1.10
2018-12-15T21:35:11.125Z,1.10
2018-12-15T21:37:38.665Z,1.10
2018-12-15T21:40:06.315Z,1.10
2018-12-15T21:42:33.782Z,1.10
2018-12-15T21:45:02.213Z,1.10
2018-12-15T21:47:30.478Z,1.10
2018-12-15T21:49:58.041Z,1.10
2018-12-15T21:52:25.493Z,1.10
2018-12-15T21:54:52.897Z,1.20
2018-12-15T21:57:20.367Z,1.10
2018-12-15T21:59:47.782Z,1.20
2018-12-15T22:02:15.274Z,1.20
2018-12-15T22:04:43.278Z,1.20
2018-12-15T22:07:10.800Z,1.20
2018-12-15T22:09:38.225Z,1.20
2018-12-15T22:12:06.544Z,1.20
2018-12-15T22:14:33.973Z,1.20
2018-12-15T22:17:01.510Z,1.20
2018-12-15T22:19:30.315Z,1.20
2018-12-15T22:22:02.967Z,1.20
2018-12-15T22:24:27.494Z,1.20
2018-12-15T22:26:54.957Z,1.20
2018-12-15T22:29:22.526Z,1.20
2018-12-15T22:31:50.665Z,1.20
2018-12-15T22:34:18.077Z,1.20
2018-12-15T22:36:46.195Z,1.20
2018-12-15T22:39:13.681Z,1.20
2018-12-15T22:41:41.212Z,1.20
2018-12-15T22:44:08.714Z,1.20
2018-12-15T22:46:36.138Z,1.20
2018-12-15T22:49:03.645Z,1.20
2018-12-15T22:51:31.981Z,1.20
2018-12-15T22:53:59.513Z,1.20
2018-12-15T22:56:26.954Z,1.30
2018-12-15T22:58:54.433Z,1.30
2018-12-15T23:01:21.901Z,1.30
2018-12-15T23:03:49.418Z,1.30
2018-12-15T23:06:16.845Z,1.30
2018-12-15T23:08:44.276Z,1.40
2018-12-15T23:11:11.915Z,1.40
2018-12-15T23:13:39.418Z,1.40
2018-12-15T23:16:07.369Z,1.40
2018-12-15T23:18:34.856Z,1.40
2018-12-15T23:21:02.909Z,1.40
2018-12-15T23:23:31.077Z,1.40
2018-12-15T23:25:58.557Z,1.40
2018-12-15T23:28:25.993Z,1.40
2018-12-15T23:30:53.493Z,1.40
2018-12-15T23:33:21.016Z,1.40
2018-12-15T23:35:48.417Z,1.40
2018-12-15T23:38:15.929Z,1.30
2018-12-15T23:40:43.342Z,1.40
2018-12-15T23:43:10.922Z,1.40
2018-12-15T23:45:39.286Z,1.30
2018-12-15T23:48:06.861Z,1.40
2018-12-15T23:50:34.325Z,1.40
2018-12-15T23:53:01.778Z,1.40
2018-12-15T23:55:29.473Z,1.40
2018-12-15T23:57:57.211Z,1.30
